LRTZ - TUZLA

Compiled: 11:36:08 on 21/04/2018

Latest METAR/SPECI Reports

METAR LRTZ 211100Z 09010KT 9999 SCT040 19/04 Q1020 BLU BLU=

Previous reports

METAR LRTZ 211000Z 05008KT 9999 SCT060 19/00 Q1020 BLU BLU=
METAR LRTZ 210900Z 03010KT 9999 SCT025 19/02 Q1021 BLU BLU=
METAR LRTZ 210800Z 32006KT 9999 SKC 18/04 Q1021 BLU BLU=
METAR LRTZ 210700Z 32006KT 9999 SKC 16/05 Q1021 BLU BLU=

Latest TAF report

TAF LRTZ 211100Z 2112/2212 1308KT 9999 SCT040 BECMG 2115/2117 19006KT SKC=

Valid WARNINGS

No valid warnings for LRTZ